CheckWX is a tool to help pilots better visualize weather data.  It is not intended as a substitute for an official pre-flight weather briefing.

21:57:01 UTC

KGKY METAR
Arlington Municipal Airport
Arlington, Texas, USA
Current

1 hour ago

KGKY 082053Z 23010G18KT 10SM CLR 36/12 A2977 RMK AO2 SLP070 T03560117 56023
Observed
Apr-8 @ 20:53 UTC
Wind
  • 230° at 10 KTS
  • Gusting to 18 KTS
Visibility
Flight Rules
VFR
Cloud Levels
  • Clear skies
Temperature
36°C / 97°F
Dewpoint
12°C / 54°F
Humidity
23%
Altimeter
29.77" Hg
Pressure
1008.12 hPa
Previous

2 hours ago

KGKY 081953Z 24011G19KT 10SM CLR 35/12 A2979 RMK AO2 SLP075 T03500122
Observed
Apr-8 @ 19:53 UTC
Wind
  • 240° at 11 KTS
  • Gusting to 19 KTS
Visibility
Flight Rules
VFR
Cloud Levels
  • Clear skies
Temperature
35°C / 95°F
Dewpoint
12°C / 54°F
Humidity
25%
Altimeter
29.79" Hg
Pressure
1008.82 hPa
Previous

3 hours ago

KGKY 081853Z 23008G17KT 210V290 10SM CLR 33/17 A2982 RMK AO2 SLP087 T03330167
Observed
Apr-8 @ 18:53 UTC
Wind
  • 230° at 8 KTS
  • Gusting to 17 KTS
Visibility
Flight Rules
VFR
Cloud Levels
  • Clear skies
Temperature
33°C / 91°F
Dewpoint
17°C / 63°F
Humidity
38%
Altimeter
29.82" Hg
Pressure
1009.82 hPa